Time;durP1;ratioP1;P1;durP2;ratioP2;P2;SDS_P1;SDS_P2;PMS_P1;PMS_P2;Temp;Humidity;BMP_temperature;BMP_pressure;BME280_temperature;BME280_humidity;BME280_pressure;Samples;Min_cycle;Max_cycle;Signal;HPM_P1;HPM_P2
2021/11/02 00:00:43;;;;;;;62.35;28.57;;;;;;;-0.39;78.80;96980.05;1709406;84;20986;-80
2021/11/02 00:03:10;;;;;;;51.02;26.23;;;;;;;-0.35;78.57;96973.97;1709530;84;20998;-80
2021/11/02 00:05:36;;;;;;;56.10;25.57;;;;;;;-0.40;78.48;96978.32;1709454;84;21053;-80
2021/11/02 00:08:03;;;;;;;62.40;26.82;;;;;;;-0.41;79.41;96976.59;1709569;84;21023;-80
2021/11/02 00:10:30;;;;;;;59.77;27.82;;;;;;;-0.43;79.04;96978.31;1744195;81;21013;-80
2021/11/02 00:12:57;;;;;;;58.70;28.90;;;;;;;-0.44;80.32;96976.17;1709631;83;20983;-80
2021/11/02 00:15:31;;;;;;;56.98;28.65;;;;;;;-0.45;79.22;96978.31;1695252;84;21088;-80
2021/11/02 00:18:06;;;;;;;65.87;28.60;;;;;;;-0.46;79.62;96982.25;1694091;83;21485;-80
2021/11/02 00:20:29;;;;;;;54.65;26.27;;;;;;;-0.54;80.10;96973.16;1713192;83;20983;-80
2021/11/02 00:22:57;;;;;;;57.50;26.42;;;;;;;-0.52;79.58;96971.83;1708168;84;21055;-80
2021/11/02 00:25:28;;;;;;;70.15;30.70;;;;;;;-0.54;79.02;96965.34;1708513;84;21037;-80
2021/11/02 00:27:56;;;;;;;57.15;27.45;;;;;;;-0.56;79.15;96964.47;1743554;82;21052;-80
2021/11/02 00:30:23;;;;;;;50.03;25.37;;;;;;;-0.56;78.96;96954.94;1749040;82;21481;-80
2021/11/02 00:32:55;;;;;;;66.62;31.15;;;;;;;-0.62;78.92;96957.98;1748859;82;21052;-80
2021/11/02 00:35:24;;;;;;;62.58;30.43;;;;;;;-0.64;79.41;96967.08;1748428;82;21061;-81
2021/11/02 00:37:53;;;;;;;71.12;31.73;;;;;;;-0.64;78.85;96965.78;1736632;82;21020;-80
2021/11/02 00:40:21;;;;;;;63.85;30.55;;;;;;;-0.65;79.16;96961.88;1746059;82;21040;-79
2021/11/02 00:42:54;;;;;;;64.00;30.68;;;;;;;-0.67;78.97;96957.55;1736032;82;21474;-79
2021/11/02 00:45:34;;;;;;;63.80;29.30;;;;;;;-0.69;79.54;96951.91;1702301;84;21032;-79
2021/11/02 00:47:52;;;;;;;67.25;30.65;;;;;;;-0.79;80.08;96951.05;1713206;82;21433;-79
2021/11/02 00:50:22;;;;;;;61.42;27.22;;;;;;;-0.80;79.63;96948.90;1745995;82;21052;-78
2021/11/02 00:52:49;;;;;;;64.12;28.38;;;;;;;-0.83;79.45;96948.04;1748838;82;20981;-79
2021/11/02 00:55:15;;;;;;;58.52;28.73;;;;;;;-0.88;79.53;96945.43;1748746;82;20992;-79
2021/11/02 00:57:42;;;;;;;74.35;31.02;;;;;;;-0.88;79.45;96940.68;1747684;82;21132;-79
2021/11/02 01:00:13;;;;;;;61.05;28.23;;;;;;;-0.91;79.50;96935.47;1740087;82;20977;-79
2021/11/02 01:02:41;;;;;;;66.33;30.77;;;;;;;-0.92;79.60;96940.24;1741955;82;21402;-78
2021/11/02 01:05:11;;;;;;;61.37;28.98;;;;;;;-0.91;79.44;96944.58;1706190;84;21374;-78
2021/11/02 01:07:39;;;;;;;53.38;26.97;;;;;;;-0.92;79.69;96942.84;1735622;83;21061;-78
2021/11/02 01:10:13;;;;;;;59.05;28.45;;;;;;;-0.94;79.42;96943.72;1735451;82;21064;-79
2021/11/02 01:12:36;;;;;;;68.42;30.05;;;;;;;-0.94;79.36;96945.44;1707392;84;21051;-79
2021/11/02 01:15:05;;;;;;;59.05;28.45;;;;;;;-0.99;79.37;96945.43;1746717;82;21439;-80
2021/11/02 01:17:32;;;;;;;58.30;28.07;;;;;;;-0.97;79.34;96937.20;1745924;82;21086;-80
2021/11/02 01:19:58;;;;;;;54.38;26.48;;;;;;;-0.98;79.68;96935.91;1732880;82;21031;-80
2021/11/02 01:22:25;;;;;;;55.75;27.48;;;;;;;-1.00;79.38;96929.40;1739298;82;20993;-80
2021/11/02 01:24:52;;;;;;;56.25;27.15;;;;;;;-0.97;79.33;96920.72;1748899;82;21024;-81
2021/11/02 01:27:20;;;;;;;62.10;26.75;;;;;;;-1.02;79.37;96922.47;1743856;82;21044;-81
2021/11/02 01:29:47;;;;;;;58.68;26.95;;;;;;;-1.10;79.13;96915.97;1706338;84;21399;-81
2021/11/02 01:32:15;;;;;;;54.67;26.55;;;;;;;-1.12;79.57;96917.72;1698273;83;21013;-81
2021/11/02 01:34:44;;;;;;;52.10;26.20;;;;;;;-1.14;79.42;96916.41;1708147;84;21013;-81
2021/11/02 01:37:11;;;;;;;56.37;26.65;;;;;;;-1.10;79.44;96915.55;1708328;84;21485;-81
2021/11/02 01:39:38;;;;;;;52.90;25.37;;;;;;;-1.12;79.28;96900.36;1708385;84;21031;-80
2021/11/02 01:42:05;;;;;;;53.08;25.52;;;;;;;-1.13;79.58;96904.30;1678251;84;21487;-81
2021/11/02 01:44:33;;;;;;;54.58;25.88;;;;;;;-1.19;80.41;96909.05;1701513;84;21019;-81
2021/11/02 01:47:00;;;;;;;55.38;25.27;;;;;;;-1.24;81.17;96908.19;1697053;85;21038;-80
2021/11/02 01:49:29;;;;;;;52.50;25.10;;;;;;;-1.27;80.91;96909.48;1650351;85;21004;-80
2021/11/02 01:51:56;;;;;;;48.48;24.87;;;;;;;-1.29;80.50;96900.38;1700604;84;21072;-81
2021/11/02 01:54:23;;;;;;;55.90;24.00;;;;;;;-1.31;80.36;96898.22;1749530;82;21020;-81
2021/11/02 01:56:51;;;;;;;50.78;25.08;;;;;;;-1.37;80.02;96888.68;1709196;84;20948;-80
2021/11/02 01:59:22;;;;;;;55.88;26.00;;;;;;;-1.39;80.16;96883.92;1735567;82;21080;-80
2021/11/02 02:02:01;;;;;;;48.58;25.23;;;;;;;-1.44;80.13;96886.96;1706289;84;21021;-80
2021/11/02 02:05:09;;;;;;;49.70;24.40;;;;;;;-1.42;79.99;96886.52;1713211;83;21052;-79
2021/11/02 02:08:19;;;;;;;53.98;24.77;;;;;;;-1.46;79.83;96890.85;1685782;84;21011;-80
2021/11/02 02:11:14;;;;;;;50.10;24.92;;;;;;;-1.49;80.00;96882.20;1697666;84;21155;-81
2021/11/02 02:14:00;;;;;;;46.92;23.15;;;;;;;-1.51;79.90;96875.69;1702877;84;21043;-79
2021/11/02 02:16:41;;;;;;;50.10;22.67;;;;;;;-1.51;80.08;96869.62;1712955;84;20993;-79
2021/11/02 02:19:48;;;;;;;45.92;21.57;;;;;;;-1.49;80.39;96870.50;1712846;84;21067;-79
2021/11/02 02:22:41;;;;;;;;;;;;;;;-1.50;79.95;96867.02;1714944;84;21046;-78
2021/11/02 02:25:30;;;;;;;50.00;22.02;;;;;;;-1.54;79.68;96864.44;1685190;85;20093;-78
2021/11/02 02:28:16;;;;;;;45.85;24.12;;;;;;;-1.56;79.75;96859.66;1684778;85;21493;-78
2021/11/02 02:30:50;;;;;;;49.55;23.65;;;;;;;-1.56;79.65;96860.95;1685428;84;21423;-78
2021/11/02 02:33:22;;;;;;;47.73;24.00;;;;;;;-1.58;79.83;96864.84;1685288;85;21087;-78
2021/11/02 02:35:51;;;;;;;51.28;23.95;;;;;;;-1.58;79.80;96857.05;1684739;85;21460;-78
2021/11/02 02:38:21;;;;;;;48.65;23.80;;;;;;;-1.58;80.02;96856.20;1685260;85;21434;-79
2021/11/02 02:40:51;;;;;;;52.03;24.90;;;;;;;-1.60;79.94;96838.02;1690844;84;21604;-79
2021/11/02 02:43:20;;;;;;;46.63;23.83;;;;;;;-1.63;80.01;96838.00;1704815;84;21449;-79
2021/11/02 02:45:51;;;;;;;45.60;22.75;;;;;;;-1.65;79.71;96842.34;1712438;84;21490;-79
2021/11/02 02:48:21;;;;;;;50.40;22.37;;;;;;;-1.66;79.77;96840.62;1713154;84;21121;-79
2021/11/02 02:50:52;;;;;;;50.45;24.07;;;;;;;-1.64;79.73;96846.25;1712537;84;21014;-79
2021/11/02 02:53:20;;;;;;;46.63;21.97;;;;;;;-1.65;79.83;96844.94;1685591;84;21000;-79
2021/11/02 02:55:49;;;;;;;45.40;22.73;;;;;;;-1.66;80.04;96843.22;1712383;84;20993;-79
2021/11/02 02:58:18;;;;;;;44.35;22.17;;;;;;;-1.68;80.25;96847.11;1712431;84;21533;-79
2021/11/02 03:00:47;;;;;;;49.95;22.45;;;;;;;-1.71;81.16;96847.55;1712456;84;21405;-79
2021/11/02 03:03:16;;;;;;;44.30;21.60;;;;;;;-1.73;80.39;96843.64;1709175;84;21456;-79
2021/11/02 03:05:43;;;;;;;47.17;21.50;;;;;;;-1.77;80.59;96845.80;1713536;84;21004;-79
2021/11/02 03:08:09;;;;;;;46.42;21.87;;;;;;;-1.80;80.93;96841.47;1701332;84;21092;-79
2021/11/02 03:10:38;;;;;;;46.18;21.75;;;;;;;-1.85;81.06;96844.49;1695926;84;21083;-80
2021/11/02 03:13:10;;;;;;;39.13;19.75;;;;;;;-1.87;81.34;96844.94;1683836;85;21477;-79
2021/11/02 03:15:48;;;;;;;43.00;20.45;;;;;;;-1.91;82.53;96845.80;1657815;87;21119;-79
2021/11/02 03:44:33;;;;;;;46.37;21.33;;;;;;;-2.06;80.58;96814.16;1679761;85;21039;-79
2021/11/02 03:54:49;;;;;;;41.13;19.57;;;;;;;-2.16;80.46;96816.74;1652646;87;21044;-79
2021/11/02 03:57:40;;;;;;;41.18;19.50;;;;;;;-2.18;80.90;96816.30;1671696;85;21040;-79
2021/11/02 04:36:46;;;;;;;36.45;17.60;;;;;;;-2.40;81.48;96836.58;1716907;84;20998;-78
2021/11/02 05:47:03;;;;;;;35.60;18.75;;;;;;;-2.29;82.16;96735.40;1736698;82;21458;-79
2021/11/02 05:49:55;;;;;;;38.95;19.05;;;;;;;-2.26;81.59;96739.73;1747518;82;21470;-80
2021/11/02 05:54:56;;;;;;;47.10;18.90;;;;;;;-2.21;81.40;96737.16;1731660;83;20973;-79
2021/11/02 05:57:24;;;;;;;40.90;18.00;;;;;;;-2.17;81.26;96739.73;1740769;82;21091;-79
2021/11/02 06:00:09;;;;;;;42.05;18.70;;;;;;;-2.20;82.00;96737.13;1718983;83;21029;-78
2021/11/02 06:05:42;;;;;;;39.38;17.52;;;;;;;-2.19;81.67;96743.20;1744818;82;20958;-77
2021/11/02 06:49:18;;;;;;;53.10;24.90;;;;;;;-1.13;80.84;96698.88;1706105;84;20967;-80
2021/11/02 06:54:37;;;;;;;61.15;27.52;;;;;;;-0.82;80.90;96696.13;1696633;84;20975;-78
2021/11/02 07:22:57;;;;;;;51.58;24.95;;;;;;;0.88;79.17;96669.45;1734344;83;20154;-79
2021/11/02 07:25:30;;;;;;;45.88;24.52;;;;;;;1.02;79.55;96670.59;1658565;85;20981;-79
2021/11/02 08:46:42;;;;;;;50.00;25.85;;;;;;;4.98;76.93;96554.83;1739232;82;21036;-82
2021/11/02 08:49:08;;;;;;;49.25;26.23;;;;;;;5.17;76.39;96549.02;1753956;82;21546;-82
2021/11/02 08:51:35;;;;;;;48.28;24.95;;;;;;;5.35;76.15;96544.10;1752720;82;20980;-82
2021/11/02 08:54:02;;;;;;;53.73;25.08;;;;;;;5.51;75.81;96542.68;1754488;81;21063;-82
2021/11/02 08:56:29;;;;;;;46.48;25.27;;;;;;;5.70;75.31;96530.69;1754460;81;21012;-82
2021/11/02 08:58:56;;;;;;;43.78;23.70;;;;;;;5.89;75.28;96529.16;1741235;82;21433;-82
2021/11/02 09:01:25;;;;;;;55.48;25.62;;;;;;;6.08;74.36;96518.03;1734596;83;21068;-83
2021/11/02 09:04:01;;;;;;;46.98;23.83;;;;;;;6.29;74.74;96515.53;1734596;82;21036;-82
2021/11/02 09:06:28;;;;;;;46.85;24.90;;;;;;;6.49;74.56;96510.87;1734532;82;21053;-82
2021/11/02 09:08:59;;;;;;;41.18;22.40;;;;;;;6.71;73.54;96503.47;1751013;81;20981;-82
2021/11/02 09:11:28;;;;;;;43.28;23.52;;;;;;;6.92;72.00;96508.37;1759663;81;20985;-81
2021/11/02 09:13:58;;;;;;;39.18;20.30;;;;;;;7.16;72.82;96512.72;1759605;81;21060;-81
2021/11/02 09:16:27;;;;;;;32.93;17.60;;;;;;;7.37;71.95;96503.09;1759376;81;21458;-82
2021/11/02 09:18:56;;;;;;;30.00;18.42;;;;;;;7.56;68.94;96496.59;1758968;81;21032;-81
2021/11/02 09:21:23;;;;;;;32.08;16.70;;;;;;;7.76;70.59;96486.98;1759480;81;21477;-81
2021/11/02 09:23:53;;;;;;;29.90;16.32;;;;;;;7.95;70.24;96483.11;1759656;81;20989;-82
2021/11/02 09:26:24;;;;;;;29.20;15.30;;;;;;;8.15;70.25;96474.30;1759541;81;21001;-81
2021/11/02 09:28:51;;;;;;;26.23;15.30;;;;;;;8.35;69.15;96468.59;1759796;81;21001;-81
2021/11/02 09:31:21;;;;;;;27.10;15.08;;;;;;;8.54;66.13;96462.06;1746666;81;21001;-81
2021/11/02 09:33:49;;;;;;;26.50;16.52;;;;;;;8.72;66.49;96455.51;1742180;81;20992;-82
2021/11/02 09:36:21;;;;;;;23.80;14.10;;;;;;;8.91;64.83;96462.57;1735756;82;21394;-82
2021/11/02 09:38:59;;;;;;;24.45;14.65;;;;;;;9.07;64.94;96446.39;1740094;82;21497;-82
2021/11/02 09:41:54;;;;;;;25.02;14.87;;;;;;;9.26;64.72;96440.17;1754377;82;21001;-83
2021/11/02 09:44:36;;;;;;;22.17;11.97;;;;;;;9.42;63.02;96436.31;1753035;82;20934;-81
2021/11/02 09:47:33;;;;;;;19.10;11.12;;;;;;;9.60;62.67;96433.20;1744593;82;21436;-82
2021/11/02 09:50:23;;;;;;;18.32;9.93;;;;;;;9.74;60.86;96431.64;1734313;82;21049;-83
2021/11/02 09:53:16;;;;;;;16.50;10.13;;;;;;;9.90;60.24;96425.09;1734752;82;21022;-83
2021/11/02 09:56:09;;;;;;;15.93;10.43;;;;;;;10.05;60.15;96420.77;1750438;81;21043;-81
2021/11/02 09:59:25;;;;;;;16.12;10.08;;;;;;;10.19;57.55;96411.25;1754384;81;21057;-81
2021/11/02 10:02:23;;;;;;;15.53;9.50;;;;;;;10.25;53.59;96413.10;1754388;81;21063;-80
2021/11/02 10:05:08;;;;;;;19.12;10.30;;;;;;;10.32;54.43;96406.14;1723244;83;21044;-82
2021/11/02 10:08:00;;;;;;;17.98;10.13;;;;;;;10.40;54.05;96399.51;1724619;83;21379;-82
2021/11/02 10:10:46;;;;;;;15.95;9.80;;;;;;;10.46;54.91;96388.22;1724515;83;21068;-82
2021/11/02 10:13:26;;;;;;;16.27;10.05;;;;;;;10.53;55.75;96390.91;1729752;82;20968;-82
2021/11/02 10:16:14;;;;;;;15.08;9.83;;;;;;;10.59;54.13;96401.64;1734771;81;21439;-82
2021/11/02 10:19:16;;;;;;;17.23;10.00;;;;;;;10.63;55.48;96401.86;1734264;82;21064;-82
2021/11/02 10:22:26;;;;;;;16.37;10.13;;;;;;;10.67;54.98;96402.08;1748741;82;21055;-80
2021/11/02 10:25:19;;;;;;;20.95;11.60;;;;;;;10.67;53.10;96392.81;1747976;82;21048;-82
2021/11/02 10:28:14;;;;;;;16.85;9.88;;;;;;;10.63;50.80;96386.80;1748243;81;21026;-82
2021/11/02 10:30:56;;;;;;;;;;;;;;;10.59;50.96;96380.45;1747646;81;20993;-82
2021/11/02 10:33:37;;;;;;;20.08;10.53;;;;;;;10.53;51.92;96386.47;1748786;82;20099;-82
2021/11/02 10:36:39;;;;;;;16.93;10.03;;;;;;;10.49;52.76;96385.39;1748582;82;21068;-81
2021/11/02 10:39:25;;;;;;;16.93;9.38;;;;;;;10.45;52.49;96380.73;1748832;82;20963;-82
2021/11/02 10:42:15;;;;;;;20.57;11.33;;;;;;;10.39;52.84;96375.27;1748600;82;21013;-81
2021/11/02 10:44:52;;;;;;;36.30;17.57;;;;;;;10.35;52.15;96372.88;1748584;82;21025;-81
2021/11/02 10:47:32;;;;;;;60.50;22.00;;;;;;;10.28;52.75;96376.34;1748672;82;20961;-81
2021/11/02 10:50:11;;;;;;;50.83;20.85;;;;;;;10.23;53.30;96385.00;1691243;83;21036;-81
2021/11/02 10:52:40;;;;;;;49.88;21.87;;;;;;;10.17;53.14;96374.26;1722028;82;20981;-81
2021/11/02 10:55:49;;;;;;;54.20;23.67;;;;;;;10.07;53.21;96373.92;1731858;82;21473;-81
2021/11/02 10:58:45;;;;;;;33.88;16.40;;;;;;;10.01;53.72;96383.52;1731735;83;21012;-81
2021/11/02 11:01:12;;;;;;;32.25;15.15;;;;;;;9.93;53.26;96385.25;1732898;82;21046;-81
2021/11/02 11:03:42;;;;;;;25.95;14.40;;;;;;;9.85;53.35;96389.59;1719217;83;21064;-81
2021/11/02 11:06:14;;;;;;;25.48;13.05;;;;;;;9.84;54.55;96392.34;1723395;82;20956;-81
2021/11/02 11:08:45;;;;;;;22.90;13.30;;;;;;;9.79;54.21;96402.32;1731690;83;20972;-81
2021/11/02 11:11:17;;;;;;;26.70;14.43;;;;;;;9.75;54.54;96401.14;1731852;82;21078;-81
2021/11/02 11:13:47;;;;;;;28.87;14.78;;;;;;;9.71;54.72;96409.34;1733077;82;21053;-81
2021/11/02 11:16:19;;;;;;;26.12;13.78;;;;;;;9.70;55.19;96418.18;1748660;82;21466;-81
2021/11/02 11:19:08;;;;;;;29.52;14.03;;;;;;;9.67;55.46;96413.91;1748701;82;21037;-81
2021/11/02 11:21:39;;;;;;;25.95;14.78;;;;;;;9.65;55.55;96423.72;1748745;82;20988;-81
2021/11/02 11:24:14;;;;;;;32.45;15.23;;;;;;;9.61;56.20;96421.70;1744112;82;21000;-81
2021/11/02 11:26:49;;;;;;;30.82;15.70;;;;;;;9.58;56.66;96432.89;1742527;82;21470;-81
2021/11/02 11:29:20;;;;;;;34.90;15.43;;;;;;;9.53;56.98;96437.10;1747953;82;21009;-81
2021/11/02 11:31:49;;;;;;;31.65;16.87;;;;;;;9.46;57.50;96436.55;1748781;82;21057;-81
2021/11/02 11:34:18;;;;;;;40.25;19.25;;;;;;;9.35;58.22;96448.14;1748645;82;21041;-81
2021/11/02 11:36:55;;;;;;;36.30;17.77;;;;;;;9.19;59.60;96452.87;1742342;82;21052;-81
2021/11/02 11:39:23;;;;;;;39.48;20.15;;;;;;;9.09;60.25;96456.86;1731677;82;21040;-82
2021/11/02 11:41:52;;;;;;;47.20;20.00;;;;;;;8.93;61.10;96460.25;1743020;82;20997;-82
2021/11/02 11:44:21;;;;;;;42.98;19.70;;;;;;;8.82;63.32;96458.14;1748764;82;20974;-83
2021/11/02 11:47:11;;;;;;;35.33;19.05;;;;;;;8.73;65.95;96462.98;1741771;82;20999;-83
2021/11/02 11:49:45;;;;;;;45.35;21.82;;;;;;;8.58;68.26;96461.45;1731761;82;21003;-83
2021/11/02 11:52:11;;;;;;;38.58;18.73;;;;;;;8.42;69.76;96459.48;1744780;82;20980;-83
2021/11/02 11:54:50;;;;;;;40.12;20.17;;;;;;;8.25;71.52;96460.70;1748354;82;21000;-83
2021/11/02 11:57:33;;;;;;;38.58;21.73;;;;;;;8.11;69.09;96455.60;1748582;82;21064;-84
2021/11/02 12:00:09;;;;;;;40.70;20.15;;;;;;;8.02;68.22;96448.09;1748626;82;21001;-84
2021/11/02 12:02:55;;;;;;;37.88;20.60;;;;;;;7.90;69.44;96445.53;1733045;82;21003;-83
2021/11/02 12:05:23;;;;;;;40.52;20.60;;;;;;;7.81;69.61;96447.25;1731542;83;21087;-83
2021/11/02 12:08:26;;;;;;;43.42;20.57;;;;;;;7.73;70.63;96452.86;1731558;83;21083;-83
2021/11/02 12:10:58;;;;;;;43.78;19.27;;;;;;;7.64;73.58;96460.23;1730902;83;21467;-84
2021/11/02 12:13:28;;;;;;;43.73;21.52;;;;;;;7.50;76.83;96467.41;1737282;82;21069;-84
2021/11/02 12:16:24;;;;;;;;;;;;;;;;;;;;;
2021/11/02 12:18:36;;;;;;;43.78;21.30;;;;;;;7.36;72.99;96457.91;1719695;82;21053;-84
2021/11/02 12:21:06;;;;;;;53.28;23.90;;;;;;;7.31;72.56;96454.61;1753944;81;21053;-84
2021/11/02 12:23:40;;;;;;;45.75;23.18;;;;;;;7.27;72.60;96463.11;1754323;82;21016;-84
2021/11/02 12:26:09;;;;;;;44.55;22.65;;;;;;;7.22;80.48;96459.77;1753932;82;21076;-84
2021/11/02 12:28:46;;;;;;;49.55;25.02;;;;;;;7.13;78.52;96468.91;1754486;81;21048;-84
2021/11/02 12:31:17;;;;;;;47.83;24.98;;;;;;;7.10;76.39;96466.42;1753057;82;21060;-83
2021/11/02 12:33:52;;;;;;;51.45;24.80;;;;;;;7.08;76.19;96461.66;1742118;82;20981;-84
2021/11/02 12:36:26;;;;;;;53.50;24.70;;;;;;;7.06;75.76;96461.72;1734679;83;21005;-84
2021/11/02 12:39:05;;;;;;;47.98;25.50;;;;;;;7.04;76.25;96457.43;1734936;82;21060;-84
2021/11/02 12:41:32;;;;;;;50.43;26.48;;;;;;;7.02;76.12;96460.12;1739455;82;20996;-84
2021/11/02 12:44:06;;;;;;;56.35;25.37;;;;;;;6.98;75.69;96458.08;1754167;81;21016;-84
2021/11/02 12:46:35;;;;;;;52.48;26.27;;;;;;;6.96;76.14;96459.05;1754514;81;21017;-84
2021/11/02 12:49:06;;;;;;;53.50;25.48;;;;;;;6.94;76.26;96464.86;1753531;81;21078;-84
2021/11/02 12:51:44;;;;;;;60.30;27.60;;;;;;;6.93;78.46;96462.67;1754386;82;21008;-84
2021/11/02 12:54:15;;;;;;;58.78;28.65;;;;;;;6.98;79.24;96471.25;1680514;83;21473;-84
2021/11/02 12:56:54;;;;;;;58.52;27.80;;;;;;;7.00;84.77;96477.78;1724618;83;21076;-84
2021/11/02 12:59:27;;;;;;;56.53;27.22;;;;;;;6.98;82.76;96472.56;1724461;83;21052;-83
2021/11/02 13:01:59;;;;;;;56.75;27.93;;;;;;;7.00;80.34;96470.74;1724437;83;21016;-84
2021/11/02 13:04:35;;;;;;;48.02;26.05;;;;;;;7.05;79.66;96465.27;1725529;82;20985;-84
2021/11/02 13:07:06;;;;;;;52.05;26.40;;;;;;;7.08;79.83;96454.63;1734484;82;21016;-84
2021/11/02 13:09:34;;;;;;;52.90;27.82;;;;;;;7.11;82.66;96449.21;1733799;82;21076;-84
2021/11/02 13:12:09;;;;;;;50.85;26.70;;;;;;;7.13;84.38;96439.94;1734542;82;21052;-83
2021/11/02 13:14:45;;;;;;;53.28;26.75;;;;;;;7.16;85.12;96433.23;1734741;82;20957;-83
2021/11/02 13:17:17;;;;;;;47.58;26.65;;;;;;;7.14;85.41;96433.73;1749592;82;20982;-83
2021/11/02 13:19:49;;;;;;;49.77;27.30;;;;;;;7.17;86.93;96452.07;1745543;82;21018;-83
2021/11/02 13:22:21;;;;;;;51.23;26.23;;;;;;;7.15;85.96;96448.66;1742175;82;21007;-83
2021/11/02 13:25:10;;;;;;;47.08;24.25;;;;;;;7.23;85.54;96458.88;1742291;82;20997;-83
2021/11/02 13:27:42;;;;;;;48.13;23.67;;;;;;;7.31;84.89;96475.69;1742240;82;20977;-83
2021/11/02 13:30:36;;;;;;;47.48;23.77;;;;;;;7.35;83.68;96468.89;1748121;82;20968;-83
2021/11/02 13:33:21;;;;;;;48.63;24.80;;;;;;;7.36;83.30;96457.91;1752000;82;20986;-84
2021/11/02 13:36:00;;;;;;;48.15;25.72;;;;;;;7.35;82.70;96464.94;1752032;82;20996;-84
2021/11/02 13:38:41;;;;;;;48.78;26.85;;;;;;;7.35;82.96;96473.33;1722074;83;21032;-83
2021/11/02 13:41:30;;;;;;;52.08;26.40;;;;;;;7.35;83.75;96476.80;1722171;83;21427;-84
2021/11/02 13:44:06;;;;;;;55.10;27.42;;;;;;;7.40;83.69;96472.20;1722092;83;21045;-83
2021/11/02 13:46:43;;;;;;;46.77;27.52;;;;;;;7.42;82.86;96475.25;1740762;82;20996;-83
2021/11/02 13:49:11;;;;;;;52.98;28.40;;;;;;;7.40;82.55;96467.41;1751946;82;21021;-84
2021/11/02 13:51:39;;;;;;;52.48;28.92;;;;;;;7.36;82.58;96456.11;1752048;82;21028;-84
2021/11/02 13:54:07;;;;;;;53.25;27.75;;;;;;;7.38;83.05;96462.64;1751693;82;21016;-84
2021/11/02 13:56:38;;;;;;;56.68;28.50;;;;;;;7.37;82.89;96463.12;1751975;82;21017;-84
2021/11/02 13:59:09;;;;;;;53.55;29.35;;;;;;;7.37;82.99;96466.20;1750759;82;21057;-83
2021/11/02 14:01:47;;;;;;;52.05;28.95;;;;;;;7.34;82.57;96462.36;1751979;82;21387;-84
2021/11/02 14:04:37;;;;;;;54.30;29.55;;;;;;;7.33;84.70;96468.12;1751750;82;21032;-83
2021/11/02 14:07:23;;;;;;;54.10;28.83;;;;;;;7.30;84.17;96463.44;1752064;82;20992;-83
2021/11/02 14:09:58;;;;;;;65.62;31.10;;;;;;;7.29;83.47;96459.06;1751947;82;20989;-83
2021/11/02 14:12:54;;;;;;;60.03;28.40;;;;;;;7.28;83.54;96459.55;1751589;82;21450;-84
2021/11/02 14:15:29;;;;;;;59.77;31.00;;;;;;;7.29;83.58;96452.47;1742321;82;21012;-84
2021/11/02 14:18:10;;;;;;;58.30;29.95;;;;;;;7.28;83.74;96453.40;1731094;82;20971;-83
2021/11/02 14:20:49;;;;;;;50.00;28.40;;;;;;;7.27;83.89;96459.16;1731677;83;21062;-84
2021/11/02 14:23:35;;;;;;;54.13;27.37;;;;;;;7.24;83.57;96451.36;1731680;83;21427;-84
2021/11/02 14:26:35;;;;;;;51.75;26.82;;;;;;;7.20;85.19;96446.69;1743784;82;21056;-84
2021/11/02 14:29:03;;;;;;;49.85;27.07;;;;;;;7.20;85.16;96446.69;1748236;82;20992;-84
2021/11/02 14:31:43;;;;;;;52.85;26.33;;;;;;;7.16;84.27;96441.14;1748889;82;21025;-84
2021/11/02 14:34:30;;;;;;;52.13;27.50;;;;;;;7.13;85.15;96432.03;1738226;82;20977;-85
2021/11/02 14:37:19;;;;;;;52.98;28.12;;;;;;;7.10;84.03;96436.97;1731682;82;21041;-85
2021/11/02 14:40:01;;;;;;;58.90;30.08;;;;;;;7.08;83.73;96448.48;1731721;83;21005;-84
2021/11/02 14:42:46;;;;;;;57.23;31.35;;;;;;;7.04;83.91;96435.91;1731593;83;21041;-84
2021/11/02 14:45:17;;;;;;;53.92;28.95;;;;;;;7.02;84.30;96440.84;1728635;82;21479;-84
2021/11/02 14:47:45;;;;;;;61.35;30.40;;;;;;;6.99;83.92;96447.09;1731794;83;21031;-84
2021/11/02 14:50:38;;;;;;;57.53;30.00;;;;;;;6.96;84.35;96442.80;1731604;83;20999;-84
2021/11/02 14:53:13;;;;;;;62.45;29.87;;;;;;;6.94;83.66;96443.31;1731679;83;21082;-84
2021/11/02 14:56:06;;;;;;;63.08;30.23;;;;;;;6.90;84.33;96449.64;1740092;82;20992;-84
2021/11/02 14:58:47;;;;;;;57.50;29.80;;;;;;;6.89;84.02;96446.59;1748844;82;21080;-84
2021/11/02 15:01:40;;;;;;;53.48;28.32;;;;;;;6.85;84.04;96448.97;1748580;82;21028;-84
2021/11/02 15:04:18;;;;;;;60.08;28.27;;;;;;;6.83;83.83;96454.73;1749044;82;20997;-84
2021/11/02 15:06:56;;;;;;;56.08;28.90;;;;;;;6.79;83.86;96447.88;1748703;82;21431;-84
2021/11/02 15:09:26;;;;;;;56.95;27.85;;;;;;;6.76;84.33;96446.70;1748880;82;21041;-84
2021/11/02 15:11:53;;;;;;;54.90;28.45;;;;;;;6.76;84.24;96448.02;1748634;82;21052;-85
2021/11/02 15:14:27;;;;;;;57.55;29.05;;;;;;;6.75;84.35;96452.41;1748745;82;21040;-85
2021/11/02 15:17:05;;;;;;;55.75;29.65;;;;;;;6.74;84.28;96448.06;1720712;83;21040;-84
2021/11/02 15:19:35;;;;;;;58.45;28.30;;;;;;;6.70;84.40;96431.54;1738166;82;21393;-85
2021/11/02 15:22:10;;;;;;;52.27;28.40;;;;;;;6.70;84.26;96440.76;1754427;82;21038;-85
2021/11/02 15:24:52;;;;;;;51.98;26.75;;;;;;;6.68;84.72;96444.37;1753529;82;21002;-85
2021/11/02 15:27:24;;;;;;;53.63;28.70;;;;;;;6.67;84.46;96442.63;1754255;82;21022;-85
2021/11/02 15:29:55;;;;;;;61.20;29.80;;;;;;;6.69;84.97;96429.80;1753894;82;21491;-84
2021/11/02 15:32:26;;;;;;;54.13;29.42;;;;;;;6.72;85.36;96436.72;1738179;82;20997;-84
2021/11/02 15:34:57;;;;;;;52.62;28.50;;;;;;;6.75;86.22;96447.14;1734702;82;21037;-84
2021/11/02 15:37:32;;;;;;;51.33;28.35;;;;;;;6.79;85.06;96444.80;1742436;82;21021;-83
2021/11/02 15:40:18;;;;;;;53.30;29.00;;;;;;;6.83;85.12;96455.61;1743914;82;21013;-83
2021/11/02 15:42:52;;;;;;;58.65;29.20;;;;;;;6.87;85.05;96451.07;1754907;81;21403;-83
2021/11/02 15:45:35;;;;;;;53.52;28.07;;;;;;;6.91;85.26;96452.67;1743378;81;21006;-83
2021/11/02 15:48:18;;;;;;;54.38;28.67;;;;;;;6.93;85.31;96456.56;1734673;82;21492;-83
2021/11/02 15:50:52;;;;;;;52.25;28.67;;;;;;;6.98;85.73;96463.82;1750177;82;21009;-83
2021/11/02 15:53:26;;;;;;;56.33;27.95;;;;;;;7.03;85.62;96460.98;1754303;81;21401;-83
2021/11/02 15:55:58;;;;;;;;;;;;;;;7.07;85.48;96453.36;1756975;82;21059;-83
2021/11/02 15:58:29;;;;;;;55.67;28.23;;;;;;;7.08;85.89;96446.72;1743444;82;20114;-83
2021/11/02 16:00:55;;;;;;;55.52;26.75;;;;;;;7.10;86.02;96453.25;1742015;82;20985;-84
2021/11/02 16:03:31;;;;;;;60.90;31.27;;;;;;;7.15;85.96;96451.29;1734678;83;20992;-84
2021/11/02 16:05:58;;;;;;;49.03;27.27;;;;;;;7.19;86.25;96451.53;1734618;83;21040;-84
2021/11/02 16:08:25;;;;;;;50.55;27.45;;;;;;;7.23;88.23;96460.20;1744627;82;21000;-83
2021/11/02 16:10:57;;;;;;;50.23;26.95;;;;;;;7.24;86.79;96457.50;1754386;82;21576;-84
2021/11/02 16:13:30;;;;;;;54.65;26.30;;;;;;;7.26;86.75;96472.78;1754449;82;21001;-84
2021/11/02 16:16:00;;;;;;;47.67;26.60;;;;;;;7.26;86.46;96466.19;1736960;82;20987;-83
2021/11/02 16:18:32;;;;;;;50.00;26.17;;;;;;;7.28;86.14;96460.86;1735197;82;21003;-84
2021/11/02 16:21:01;;;;;;;51.00;27.95;;;;;;;7.23;86.46;96462.34;1752824;82;21426;-83
2021/11/02 16:23:47;;;;;;;48.50;28.23;;;;;;;7.18;86.42;96471.38;1757550;81;21140;-83
2021/11/02 16:26:27;;;;;;;47.98;25.65;;;;;;;7.18;87.03;96480.13;1757496;81;21040;-83
2021/11/02 16:28:58;;;;;;;52.43;29.18;;;;;;;7.18;86.46;96485.39;1757426;81;21021;-83
2021/11/02 16:31:26;;;;;;;55.43;29.10;;;;;;;7.13;85.88;96471.55;1756892;82;21024;-83
2021/11/02 16:33:54;;;;;;;50.28;28.23;;;;;;;7.07;85.97;96492.44;1727461;83;21087;-84
2021/11/02 16:36:35;;;;;;;56.00;28.90;;;;;;;7.03;85.85;96475.48;1730651;82;21000;-83
2021/11/02 16:39:16;;;;;;;50.60;28.35;;;;;;;6.99;87.05;96483.48;1736372;81;21045;-84
2021/11/02 16:41:53;;;;;;;51.35;26.82;;;;;;;6.97;86.47;96475.25;1738471;82;21446;-83
2021/11/02 16:44:31;;;;;;;46.73;26.50;;;;;;;6.90;87.14;96479.93;1748699;82;20990;-83
2021/11/02 16:47:14;;;;;;;52.75;28.40;;;;;;;6.84;86.37;96484.97;1755948;82;21484;-83
2021/11/02 16:49:43;;;;;;;48.05;25.77;;;;;;;6.73;86.28;96475.32;1746770;81;20985;-83
2021/11/02 16:52:18;;;;;;;49.13;26.50;;;;;;;6.62;86.38;96465.64;1740744;82;21008;-83
2021/11/02 16:54:45;;;;;;;53.58;27.60;;;;;;;6.54;86.68;96458.04;1748019;82;21525;-83